Bluebell, Utah
Current Conditions -  °F | °C
As of 5:53 AM on Tuesday 21 Oct 2014 (Local Time) from KVEL Reporting Station
Broken Clouds Broken Clouds  
Wind Chill: 42°   Ceiling: 9000
Heat Index: 45°   Visibility: 10mi
Dew Point: 37°   Wind: 6mph
Humidity: 74%   Direction: 300°WNW
Pressure: 30.03"   Gusts: NA
Location:  40.36°N, 110.22°W
Report Text: KVEL 211153Z AUTO 30005KT 10SM SCT075 BKN090 07/03 A3003 RMK AO2 SLP133 T00720028 10106 20067 55003
Loading
Personal Weather Stations






























Interactive Weather Map New forecast layout! Learn more

10-Day Weather Forecast

Advertisements
Track Severe Weather on mobile